This is the latest recevied weather packets stored in our database for station/object N8VDS-10. If no packets are shown the sender has not sent any weather packets the latest 10 day(s).
| Time | Temp. | Humidity | Pressure | Rain* | Wind** | Luminosity | Snow |
|---|---|---|---|---|---|---|---|
| 1777965676 | 15° C | 79% | 1003 hPa | 0 mm | - | 0 W/m² | - |
| 1777965371 | 15° C | 79% | 1002.9 hPa | 0 mm | - | 0 W/m² | - |
| 1777965069 | 15° C | 78% | 1002.8 hPa | 0 mm | - | 0 W/m² | - |
| 1777964766 | 15° C | 78% | 1002.7 hPa | 0 mm | - | 0 W/m² | - |
| 1777964462 | 15° C | 78% | 1002.9 hPa | 0 mm | - | 0 W/m² | - |
| 1777964158 | 15° C | 78% | 1003.1 hPa | 0 mm | - | 0 W/m² | - |
| 1777963855 | 15° C | 77% | 1003 hPa | 0 mm | - | 0 W/m² | - |
| 1777963552 | 15.56° C | 77% | 1003 hPa | 0 mm | - | 0 W/m² | - |
| 1777963250 | 15.56° C | 77% | 1003.1 hPa | 0 mm | - | 0 W/m² | - |
| 1777962947 | 15.56° C | 76% | 1003.1 hPa | 0 mm | - | 0 W/m² | - |
| 1777962643 | 15.56° C | 75% | 1003.2 hPa | 0 mm | - | 0 W/m² | - |
| 1777962340 | 15.56° C | 77% | 1002.9 hPa | 0 mm | - | 0 W/m² | - |
| 1777962037 | 15.56° C | 76% | 1003.1 hPa | 0 mm | - | 0 W/m² | - |
| 1777961734 | 15.56° C | 76% | 1003.3 hPa | 0 mm | - | 0 W/m² | - |
| 1777961432 | 15.56° C | 76% | 1003.2 hPa | 0 mm | - | 0 W/m² | - |
| 1777961129 | 15° C | 80% | 1003.3 hPa | 0 mm | - | 0 W/m² | - |
| 1777960826 | 15° C | 79% | 1003.2 hPa | 0 mm | - | 0 W/m² | - |
| 1777960521 | 15° C | 84% | 1003.3 hPa | 0 mm | - | 0 W/m² | - |
| 1777960218 | 15° C | 83% | 1003.2 hPa | 1.78 mm | - | 0 W/m² | - |
| 1777959916 | 15° C | 82% | 1003.1 hPa | 1.78 mm | - | 0 W/m² | - |
| 1777959614 | 15.56° C | 81% | 1003.4 hPa | 1.27 mm | - | 0 W/m² | - |
| 1777959311 | 16.11° C | 78% | 1003.4 hPa | 1.27 mm | - | 0 W/m² | - |
| 1777959007 | 16.11° C | 75% | 1003.5 hPa | 0 mm | - | 0 W/m² | - |
| 1777958704 | 17.78° C | 70% | 1003.4 hPa | 0 mm | - | 0 W/m² | - |
| 1777958401 | 18.33° C | 63% | 1003.3 hPa | 0 mm | - | 0 W/m² | - |
* Rain latest hour (hover to see other rain measurements)
** Current wind speed in m/s (hover to see current wind gust speed)